sensor_id;sensor_type;location;lat;lon;timestamp;temperature;humidity
65472;DHT22;52068;50.710;14.492;2023-05-02T00:01:03;23.47;42.12
65472;DHT22;52068;50.710;14.492;2023-05-02T00:03:29;23.48;41.99
65472;DHT22;52068;50.710;14.492;2023-05-02T00:05:55;23.48;42.06
65472;DHT22;52068;50.710;14.492;2023-05-02T00:08:20;23.51;42.06
65472;DHT22;52068;50.710;14.492;2023-05-02T00:10:46;23.51;42.17
65472;DHT22;52068;50.710;14.492;2023-05-02T00:13:11;23.54;42.08
65472;DHT22;52068;50.710;14.492;2023-05-02T00:15:36;23.55;41.90
65472;DHT22;52068;50.710;14.492;2023-05-02T00:18:01;23.57;41.75
65472;DHT22;52068;50.710;14.492;2023-05-02T00:20:27;23.61;41.72
65472;DHT22;52068;50.710;14.492;2023-05-02T00:22:52;23.62;41.69
65472;DHT22;52068;50.710;14.492;2023-05-02T00:25:17;23.62;41.69
65472;DHT22;52068;50.710;14.492;2023-05-02T00:27:43;23.65;41.64
65472;DHT22;52068;50.710;14.492;2023-05-02T00:30:10;23.64;41.78
65472;DHT22;52068;50.710;14.492;2023-05-02T00:32:35;23.59;41.78
65472;DHT22;52068;50.710;14.492;2023-05-02T00:35:02;23.57;41.83
65472;DHT22;52068;50.710;14.492;2023-05-02T00:37:27;23.52;41.95
65472;DHT22;52068;50.710;14.492;2023-05-02T00:39:52;23.48;42.06
65472;DHT22;52068;50.710;14.492;2023-05-02T00:42:18;23.45;42.29
65472;DHT22;52068;50.710;14.492;2023-05-02T00:44:43;23.41;42.38
65472;DHT22;52068;50.710;14.492;2023-05-02T00:47:08;23.40;42.51
65472;DHT22;52068;50.710;14.492;2023-05-02T00:49:34;23.37;42.67
65472;DHT22;52068;50.710;14.492;2023-05-02T00:51:59;23.34;42.84
65472;DHT22;52068;50.710;14.492;2023-05-02T00:54:24;23.35;42.92
65472;DHT22;52068;50.710;14.492;2023-05-02T00:56:50;23.31;43.00
65472;DHT22;52068;50.710;14.492;2023-05-02T00:59:15;23.30;43.09
65472;DHT22;52068;50.710;14.492;2023-05-02T01:04:35;23.37;43.11
65472;DHT22;52068;50.710;14.492;2023-05-02T01:09:46;23.40;42.97
65472;DHT22;52068;50.710;14.492;2023-05-02T01:14:43;23.45;42.88
65472;DHT22;52068;50.710;14.492;2023-05-02T01:17:10;23.50;42.80
65472;DHT22;52068;50.710;14.492;2023-05-02T01:19:37;23.54;42.73
65472;DHT22;52068;50.710;14.492;2023-05-02T01:22:04;23.57;42.67
65472;DHT22;52068;50.710;14.492;2023-05-02T01:25:07;23.61;42.54
65472;DHT22;52068;50.710;14.492;2023-05-02T01:30:06;23.66;42.23
65472;DHT22;52068;50.710;14.492;2023-05-02T01:32:33;23.65;42.20
65472;DHT22;52068;50.710;14.492;2023-05-02T01:35:00;23.66;42.17
65472;DHT22;52068;50.710;14.492;2023-05-02T01:37:26;23.64;42.17
65472;DHT22;52068;50.710;14.492;2023-05-02T01:39:53;23.58;42.24
65472;DHT22;52068;50.710;14.492;2023-05-02T01:42:20;23.52;42.30
65472;DHT22;52068;50.710;14.492;2023-05-02T01:44:46;23.50;42.31
65472;DHT22;52068;50.710;14.492;2023-05-02T01:47:12;23.44;42.60
65472;DHT22;52068;50.710;14.492;2023-05-02T01:49:39;23.43;42.59
65472;DHT22;52068;50.710;14.492;2023-05-02T01:52:06;23.38;42.62
65472;DHT22;52068;50.710;14.492;2023-05-02T01:54:32;23.35;42.63
65472;DHT22;52068;50.710;14.492;2023-05-02T01:56:59;23.35;42.74
65472;DHT22;52068;50.710;14.492;2023-05-02T01:59:26;23.30;42.79
65472;DHT22;52068;50.710;14.492;2023-05-02T02:01:52;23.25;42.90
65472;DHT22;52068;50.710;14.492;2023-05-02T02:04:18;23.27;42.94
65472;DHT22;52068;50.710;14.492;2023-05-02T02:06:45;23.31;42.92
65472;DHT22;52068;50.710;14.492;2023-05-02T02:09:11;23.35;42.95
65472;DHT22;52068;50.710;14.492;2023-05-02T02:11:41;23.38;42.73
65472;DHT22;52068;50.710;14.492;2023-05-02T02:14:11;23.43;42.68
65472;DHT22;52068;50.710;14.492;2023-05-02T02:16:38;23.45;42.75
65472;DHT22;52068;50.710;14.492;2023-05-02T02:19:06;23.47;42.84
65472;DHT22;52068;50.710;14.492;2023-05-02T02:21:34;23.50;42.88
65472;DHT22;52068;50.710;14.492;2023-05-02T02:24:00;23.54;42.68
65472;DHT22;52068;50.710;14.492;2023-05-02T02:26:26;23.55;42.64
65472;DHT22;52068;50.710;14.492;2023-05-02T02:28:51;23.58;42.71
65472;DHT22;52068;50.710;14.492;2023-05-02T02:31:17;23.61;42.56
65472;DHT22;52068;50.710;14.492;2023-05-02T02:33:42;23.65;42.62
65472;DHT22;52068;50.710;14.492;2023-05-02T02:36:17;23.68;42.52
65472;DHT22;52068;50.710;14.492;2023-05-02T02:38:49;23.66;42.63
65472;DHT22;52068;50.710;14.492;2023-05-02T02:41:21;23.65;42.63
65472;DHT22;52068;50.710;14.492;2023-05-02T02:43:55;23.62;42.72
65472;DHT22;52068;50.710;14.492;2023-05-02T02:46:39;23.54;42.86
65472;DHT22;52068;50.710;14.492;2023-05-02T02:49:14;23.50;43.02
65472;DHT22;52068;50.710;14.492;2023-05-02T02:54:34;23.41;43.30
65472;DHT22;52068;50.710;14.492;2023-05-02T02:57:00;23.34;43.37
65472;DHT22;52068;50.710;14.492;2023-05-02T02:59:30;23.34;43.51
65472;DHT22;52068;50.710;14.492;2023-05-02T03:02:01;23.31;43.63
65472;DHT22;52068;50.710;14.492;2023-05-02T03:04:29;23.28;43.76
65472;DHT22;52068;50.710;14.492;2023-05-02T03:06:55;23.24;43.84
65472;DHT22;52068;50.710;14.492;2023-05-02T03:09:21;23.24;43.91
65472;DHT22;52068;50.710;14.492;2023-05-02T03:11:46;23.31;43.79
65472;DHT22;52068;50.710;14.492;2023-05-02T03:14:11;23.37;43.67
65472;DHT22;52068;50.710;14.492;2023-05-02T03:16:37;23.40;43.87
65472;DHT22;52068;50.710;14.492;2023-05-02T03:19:03;23.37;43.83
65472;DHT22;52068;50.710;14.492;2023-05-02T03:21:29;23.37;43.77
65472;DHT22;52068;50.710;14.492;2023-05-02T03:24:01;23.41;43.68
65472;DHT22;52068;50.710;14.492;2023-05-02T03:26:27;23.44;43.68
65472;DHT22;52068;50.710;14.492;2023-05-02T03:28:53;23.50;43.49
65472;DHT22;52068;50.710;14.492;2023-05-02T03:31:18;23.51;43.36
65472;DHT22;52068;50.710;14.492;2023-05-02T03:33:44;23.52;43.28
65472;DHT22;52068;50.710;14.492;2023-05-02T03:36:09;23.59;43.09
65472;DHT22;52068;50.710;14.492;2023-05-02T03:38:35;23.59;43.03
65472;DHT22;52068;50.710;14.492;2023-05-02T03:41:00;23.62;42.92
65472;DHT22;52068;50.710;14.492;2023-05-02T03:43:27;23.59;43.04
65472;DHT22;52068;50.710;14.492;2023-05-02T03:45:52;23.62;43.08
65472;DHT22;52068;50.710;14.492;2023-05-02T03:48:17;23.58;43.23
65472;DHT22;52068;50.710;14.492;2023-05-02T03:50:43;23.50;43.43
65472;DHT22;52068;50.710;14.492;2023-05-02T03:53:08;23.44;43.61
65472;DHT22;52068;50.710;14.492;2023-05-02T03:55:42;23.41;43.68
65472;DHT22;52068;50.710;14.492;2023-05-02T03:58:09;23.35;43.82
65472;DHT22;52068;50.710;14.492;2023-05-02T04:00:34;23.34;43.87
65472;DHT22;52068;50.710;14.492;2023-05-02T04:03:00;23.30;43.88
65472;DHT22;52068;50.710;14.492;2023-05-02T04:05:27;23.28;43.96
65472;DHT22;52068;50.710;14.492;2023-05-02T04:07:53;23.25;44.01
65472;DHT22;52068;50.710;14.492;2023-05-02T04:10:18;23.23;43.98
65472;DHT22;52068;50.710;14.492;2023-05-02T04:12:43;23.23;44.27
65472;DHT22;52068;50.710;14.492;2023-05-02T04:15:09;23.23;44.35
65472;DHT22;52068;50.710;14.492;2023-05-02T04:17:34;23.23;44.17
65472;DHT22;52068;50.710;14.492;2023-05-02T04:20:00;23.28;44.09
65472;DHT22;52068;50.710;14.492;2023-05-02T04:22:25;23.34;43.85
65472;DHT22;52068;50.710;14.492;2023-05-02T04:24:51;23.38;43.77
65472;DHT22;52068;50.710;14.492;2023-05-02T04:27:16;23.37;43.67
65472;DHT22;52068;50.710;14.492;2023-05-02T04:29:42;23.38;43.70
65472;DHT22;52068;50.710;14.492;2023-05-02T04:32:07;23.35;43.71
65472;DHT22;52068;50.710;14.492;2023-05-02T04:34:32;23.34;43.74
65472;DHT22;52068;50.710;14.492;2023-05-02T04:36:57;23.40;43.76
65472;DHT22;52068;50.710;14.492;2023-05-02T04:39:23;23.44;43.50
65472;DHT22;52068;50.710;14.492;2023-05-02T04:41:48;23.47;43.39
65472;DHT22;52068;50.710;14.492;2023-05-02T04:44:14;23.52;43.45
65472;DHT22;52068;50.710;14.492;2023-05-02T04:46:39;23.54;43.35
65472;DHT22;52068;50.710;14.492;2023-05-02T04:49:05;23.57;43.31
65472;DHT22;52068;50.710;14.492;2023-05-02T04:51:30;23.57;43.15
65472;DHT22;52068;50.710;14.492;2023-05-02T04:53:55;23.57;43.20
65472;DHT22;52068;50.710;14.492;2023-05-02T04:56:21;23.51;43.39
65472;DHT22;52068;50.710;14.492;2023-05-02T04:58:46;23.51;43.42
65472;DHT22;52068;50.710;14.492;2023-05-02T05:01:11;23.44;43.48
65472;DHT22;52068;50.710;14.492;2023-05-02T05:03:37;23.41;43.71
65472;DHT22;52068;50.710;14.492;2023-05-02T05:06:02;23.37;43.75
65472;DHT22;52068;50.710;14.492;2023-05-02T05:08:27;23.34;43.66
65472;DHT22;52068;50.710;14.492;2023-05-02T05:10:53;23.31;43.65
65472;DHT22;52068;50.710;14.492;2023-05-02T05:13:18;23.33;43.65
65472;DHT22;52068;50.710;14.492;2023-05-02T05:15:43;23.35;43.60
65472;DHT22;52068;50.710;14.492;2023-05-02T05:18:08;23.33;43.60
65472;DHT22;52068;50.710;14.492;2023-05-02T05:20:34;23.34;43.55
65472;DHT22;52068;50.710;14.492;2023-05-02T05:22:59;23.33;43.52
65472;DHT22;52068;50.710;14.492;2023-05-02T05:25:25;23.34;43.40
65472;DHT22;52068;50.710;14.492;2023-05-02T05:27:50;23.37;43.35
65472;DHT22;52068;50.710;14.492;2023-05-02T05:30:16;23.43;43.18
65472;DHT22;52068;50.710;14.492;2023-05-02T05:32:41;23.47;43.10
65472;DHT22;52068;50.710;14.492;2023-05-02T05:35:07;23.52;42.97
65472;DHT22;52068;50.710;14.492;2023-05-02T05:37:32;23.55;42.86
65472;DHT22;52068;50.710;14.492;2023-05-02T05:39:58;23.55;42.86
65472;DHT22;52068;50.710;14.492;2023-05-02T05:42:23;23.59;42.75
65472;DHT22;52068;50.710;14.492;2023-05-02T05:44:48;23.59;42.74
65472;DHT22;52068;50.710;14.492;2023-05-02T05:47:17;23.59;42.70
65472;DHT22;52068;50.710;14.492;2023-05-02T05:49:43;23.65;42.91
65472;DHT22;52068;50.710;14.492;2023-05-02T05:52:08;23.64;42.91
65472;DHT22;52068;50.710;14.492;2023-05-02T05:54:33;23.64;42.94
65472;DHT22;52068;50.710;14.492;2023-05-02T05:56:59;23.61;42.90
65472;DHT22;52068;50.710;14.492;2023-05-02T05:59:25;23.58;42.85
65472;DHT22;52068;50.710;14.492;2023-05-02T06:01:51;23.59;42.88
65472;DHT22;52068;50.710;14.492;2023-05-02T06:04:18;23.58;42.89
65472;DHT22;52068;50.710;14.492;2023-05-02T06:06:43;23.55;42.92
65472;DHT22;52068;50.710;14.492;2023-05-02T06:09:08;23.55;42.94
65472;DHT22;52068;50.710;14.492;2023-05-02T06:11:35;23.52;42.87
65472;DHT22;52068;50.710;14.492;2023-05-02T06:14:00;23.51;42.87
65472;DHT22;52068;50.710;14.492;2023-05-02T06:16:26;23.51;42.80
65472;DHT22;52068;50.710;14.492;2023-05-02T06:18:51;23.51;42.82
65472;DHT22;52068;50.710;14.492;2023-05-02T06:21:17;23.52;42.74
65472;DHT22;52068;50.710;14.492;2023-05-02T06:23:42;23.51;42.77
65472;DHT22;52068;50.710;14.492;2023-05-02T06:26:07;23.48;42.77
65472;DHT22;52068;50.710;14.492;2023-05-02T06:28:34;23.48;42.85
65472;DHT22;52068;50.710;14.492;2023-05-02T06:31:00;23.48;42.68
65472;DHT22;52068;50.710;14.492;2023-05-02T06:33:28;23.48;42.67
65472;DHT22;52068;50.710;14.492;2023-05-02T06:35:54;23.45;42.43
65472;DHT22;52068;50.710;14.492;2023-05-02T06:38:19;23.45;42.40
65472;DHT22;52068;50.710;14.492;2023-05-02T06:40:45;23.45;42.51
65472;DHT22;52068;50.710;14.492;2023-05-02T06:43:10;23.43;42.44
65472;DHT22;52068;50.710;14.492;2023-05-02T06:45:36;23.44;42.66
65472;DHT22;52068;50.710;14.492;2023-05-02T06:48:01;23.44;42.72
65472;DHT22;52068;50.710;14.492;2023-05-02T06:50:27;23.43;42.69
65472;DHT22;52068;50.710;14.492;2023-05-02T06:52:53;23.44;42.69
65472;DHT22;52068;50.710;14.492;2023-05-02T06:55:18;23.45;42.47
65472;DHT22;52068;50.710;14.492;2023-05-02T06:57:43;23.48;42.60
65472;DHT22;52068;50.710;14.492;2023-05-02T07:00:09;23.48;42.46
65472;DHT22;52068;50.710;14.492;2023-05-02T07:02:34;23.47;42.56
65472;DHT22;52068;50.710;14.492;2023-05-02T07:04:59;23.50;42.54
65472;DHT22;52068;50.710;14.492;2023-05-02T07:07:24;23.51;42.55
65472;DHT22;52068;50.710;14.492;2023-05-02T07:09:50;23.52;42.52
65472;DHT22;52068;50.710;14.492;2023-05-02T07:12:16;23.54;42.50
65472;DHT22;52068;50.710;14.492;2023-05-02T07:14:41;23.52;42.41
65472;DHT22;52068;50.710;14.492;2023-05-02T07:17:07;23.54;42.47
65472;DHT22;52068;50.710;14.492;2023-05-02T07:19:32;23.54;42.36
65472;DHT22;52068;50.710;14.492;2023-05-02T07:21:57;23.58;42.36
65472;DHT22;52068;50.710;14.492;2023-05-02T07:24:22;23.55;42.37
65472;DHT22;52068;50.710;14.492;2023-05-02T07:26:48;23.59;42.40
65472;DHT22;52068;50.710;14.492;2023-05-02T07:29:13;23.58;42.36
65472;DHT22;52068;50.710;14.492;2023-05-02T07:31:38;23.57;42.32
65472;DHT22;52068;50.710;14.492;2023-05-02T07:34:04;23.58;42.25
65472;DHT22;52068;50.710;14.492;2023-05-02T07:36:29;23.61;42.29
65472;DHT22;52068;50.710;14.492;2023-05-02T07:38:54;23.61;42.27
65472;DHT22;52068;50.710;14.492;2023-05-02T07:41:19;23.61;42.24
65472;DHT22;52068;50.710;14.492;2023-05-02T07:43:45;23.61;42.07
65472;DHT22;52068;50.710;14.492;2023-05-02T07:46:10;23.61;42.10
65472;DHT22;52068;50.710;14.492;2023-05-02T07:48:35;23.64;41.94
65472;DHT22;52068;50.710;14.492;2023-05-02T07:51:08;23.61;42.00
65472;DHT22;52068;50.710;14.492;2023-05-02T07:53:33;23.58;41.89
65472;DHT22;52068;50.710;14.492;2023-05-02T07:55:58;23.59;41.86
65472;DHT22;52068;50.710;14.492;2023-05-02T07:58:23;23.58;42.04
65472;DHT22;52068;50.710;14.492;2023-05-02T08:00:49;23.58;42.05
65472;DHT22;52068;50.710;14.492;2023-05-02T08:03:14;23.58;41.96
65472;DHT22;52068;50.710;14.492;2023-05-02T08:05:39;23.58;41.94
65472;DHT22;52068;50.710;14.492;2023-05-02T08:08:05;23.58;41.91
65472;DHT22;52068;50.710;14.492;2023-05-02T08:10:30;23.58;41.87
65472;DHT22;52068;50.710;14.492;2023-05-02T08:12:55;23.57;41.85
65472;DHT22;52068;50.710;14.492;2023-05-02T08:15:21;23.57;41.86
65472;DHT22;52068;50.710;14.492;2023-05-02T08:17:46;23.58;41.98
65472;DHT22;52068;50.710;14.492;2023-05-02T08:20:11;23.58;41.88
65472;DHT22;52068;50.710;14.492;2023-05-02T08:22:36;23.59;41.93
65472;DHT22;52068;50.710;14.492;2023-05-02T08:25:02;23.58;41.98
65472;DHT22;52068;50.710;14.492;2023-05-02T08:27:27;23.57;42.00
65472;DHT22;52068;50.710;14.492;2023-05-02T08:29:52;23.58;41.98
65472;DHT22;52068;50.710;14.492;2023-05-02T08:32:18;23.58;41.89
65472;DHT22;52068;50.710;14.492;2023-05-02T08:34:43;23.58;41.90
65472;DHT22;52068;50.710;14.492;2023-05-02T08:37:09;23.58;41.87
65472;DHT22;52068;50.710;14.492;2023-05-02T08:39:34;23.57;41.82
65472;DHT22;52068;50.710;14.492;2023-05-02T08:41:59;23.61;41.75
65472;DHT22;52068;50.710;14.492;2023-05-02T08:44:25;23.58;41.79
65472;DHT22;52068;50.710;14.492;2023-05-02T08:46:50;23.57;41.84
65472;DHT22;52068;50.710;14.492;2023-05-02T08:49:16;23.59;41.79
65472;DHT22;52068;50.710;14.492;2023-05-02T08:51:42;23.58;41.72
65472;DHT22;52068;50.710;14.492;2023-05-02T08:54:09;23.59;41.69
65472;DHT22;52068;50.710;14.492;2023-05-02T08:56:34;23.58;41.83
65472;DHT22;52068;50.710;14.492;2023-05-02T08:59:00;23.58;41.87
65472;DHT22;52068;50.710;14.492;2023-05-02T09:01:27;23.55;41.70
65472;DHT22;52068;50.710;14.492;2023-05-02T09:03:53;23.57;41.72
65472;DHT22;52068;50.710;14.492;2023-05-02T09:06:20;23.57;41.86
65472;DHT22;52068;50.710;14.492;2023-05-02T09:08:46;23.57;41.68
65472;DHT22;52068;50.710;14.492;2023-05-02T09:11:16;23.58;41.67
65472;DHT22;52068;50.710;14.492;2023-05-02T09:13:45;23.57;41.80
65472;DHT22;52068;50.710;14.492;2023-05-02T09:18:36;23.58;41.69
65472;DHT22;52068;50.710;14.492;2023-05-02T09:21:06;23.58;41.66
65472;DHT22;52068;50.710;14.492;2023-05-02T09:23:37;23.58;41.84
65472;DHT22;52068;50.710;14.492;2023-05-02T09:26:09;23.57;41.83
65472;DHT22;52068;50.710;14.492;2023-05-02T09:28:39;23.57;41.59
65472;DHT22;52068;50.710;14.492;2023-05-02T09:31:09;23.55;41.61
65472;DHT22;52068;50.710;14.492;2023-05-02T09:33:34;23.57;41.70
65472;DHT22;52068;50.710;14.492;2023-05-02T09:36:00;23.57;41.76
65472;DHT22;52068;50.710;14.492;2023-05-02T09:38:25;23.58;41.55
65472;DHT22;52068;50.710;14.492;2023-05-02T09:40:53;23.57;41.62
65472;DHT22;52068;50.710;14.492;2023-05-02T09:43:21;23.58;41.64
65472;DHT22;52068;50.710;14.492;2023-05-02T09:45:57;23.57;41.87
65472;DHT22;52068;50.710;14.492;2023-05-02T09:48:22;23.58;41.69
65472;DHT22;52068;50.710;14.492;2023-05-02T09:50:48;23.58;41.68
65472;DHT22;52068;50.710;14.492;2023-05-02T09:53:14;23.59;41.53
65472;DHT22;52068;50.710;14.492;2023-05-02T09:55:39;23.58;41.65
65472;DHT22;52068;50.710;14.492;2023-05-02T09:58:04;23.61;41.76
65472;DHT22;52068;50.710;14.492;2023-05-02T10:00:37;23.61;41.68
65472;DHT22;52068;50.710;14.492;2023-05-02T10:03:03;23.61;41.67
65472;DHT22;52068;50.710;14.492;2023-05-02T10:05:30;23.64;41.65
65472;DHT22;52068;50.710;14.492;2023-05-02T10:07:55;23.59;41.51
65472;DHT22;52068;50.710;14.492;2023-05-02T10:10:20;23.59;41.65
65472;DHT22;52068;50.710;14.492;2023-05-02T10:12:46;23.58;41.44
65472;DHT22;52068;50.710;14.492;2023-05-02T10:15:12;23.61;41.37
65472;DHT22;52068;50.710;14.492;2023-05-02T10:17:39;23.59;41.64
65472;DHT22;52068;50.710;14.492;2023-05-02T10:20:07;23.61;41.67
65472;DHT22;52068;50.710;14.492;2023-05-02T10:22:34;23.62;41.47
65472;DHT22;52068;50.710;14.492;2023-05-02T10:25:01;23.62;41.54
65472;DHT22;52068;50.710;14.492;2023-05-02T10:27:28;23.64;41.44
65472;DHT22;52068;50.710;14.492;2023-05-02T10:29:53;23.61;41.54
65472;DHT22;52068;50.710;14.492;2023-05-02T10:32:22;23.62;41.67
65472;DHT22;52068;50.710;14.492;2023-05-02T10:34:48;23.62;41.70
65472;DHT22;52068;50.710;14.492;2023-05-02T10:37:14;23.65;41.64
65472;DHT22;52068;50.710;14.492;2023-05-02T10:39:40;23.64;41.64
65472;DHT22;52068;50.710;14.492;2023-05-02T10:42:05;23.65;41.35
65472;DHT22;52068;50.710;14.492;2023-05-02T10:44:34;23.64;41.54
65472;DHT22;52068;50.710;14.492;2023-05-02T10:47:00;23.64;41.63
65472;DHT22;52068;50.710;14.492;2023-05-02T10:49:25;23.64;41.42
65472;DHT22;52068;50.710;14.492;2023-05-02T10:51:51;23.66;41.53
65472;DHT22;52068;50.710;14.492;2023-05-02T10:54:23;23.62;41.49
65472;DHT22;52068;50.710;14.492;2023-05-02T10:59:30;23.66;41.34
65472;DHT22;52068;50.710;14.492;2023-05-02T11:01:56;23.65;41.52
65472;DHT22;52068;50.710;14.492;2023-05-02T11:04:22;23.65;41.55
65472;DHT22;52068;50.710;14.492;2023-05-02T11:11:56;23.66;41.38
65472;DHT22;52068;50.710;14.492;2023-05-02T11:24:42;23.68;41.47
65472;DHT22;52068;50.710;14.492;2023-05-02T11:29:53;23.68;41.66
65472;DHT22;52068;50.710;14.492;2023-05-02T11:32:18;23.69;41.72
65472;DHT22;52068;50.710;14.492;2023-05-02T11:34:43;23.69;41.72
65472;DHT22;52068;50.710;14.492;2023-05-02T11:37:09;23.74;41.68
65472;DHT22;52068;50.710;14.492;2023-05-02T11:39:35;23.74;41.69
65472;DHT22;52068;50.710;14.492;2023-05-02T11:42:00;23.69;41.65
65472;DHT22;52068;50.710;14.492;2023-05-02T11:44:25;23.72;41.70
65472;DHT22;52068;50.710;14.492;2023-05-02T11:46:52;23.72;41.72
65472;DHT22;52068;50.710;14.492;2023-05-02T11:49:17;23.74;41.71
65472;DHT22;52068;50.710;14.492;2023-05-02T11:51:43;23.75;41.71
65472;DHT22;52068;50.710;14.492;2023-05-02T11:54:08;23.74;41.60
65472;DHT22;52068;50.710;14.492;2023-05-02T11:56:40;23.76;41.37
65472;DHT22;52068;50.710;14.492;2023-05-02T11:59:06;23.74;41.54
65472;DHT22;52068;50.710;14.492;2023-05-02T12:01:32;23.72;41.37
65472;DHT22;52068;50.710;14.492;2023-05-02T12:04:03;23.72;41.64
65472;DHT22;52068;50.710;14.492;2023-05-02T12:06:29;23.72;41.64
65472;DHT22;52068;50.710;14.492;2023-05-02T12:09:04;23.69;41.61
65472;DHT22;52068;50.710;14.492;2023-05-02T12:11:30;23.71;41.36
65472;DHT22;52068;50.710;14.492;2023-05-02T12:13:55;23.71;41.37
65472;DHT22;52068;50.710;14.492;2023-05-02T12:16:21;23.74;41.60
65472;DHT22;52068;50.710;14.492;2023-05-02T12:18:46;23.72;41.71
65472;DHT22;52068;50.710;14.492;2023-05-02T12:21:12;23.72;41.58
65472;DHT22;52068;50.710;14.492;2023-05-02T12:23:38;23.72;41.36
65472;DHT22;52068;50.710;14.492;2023-05-02T12:26:22;23.72;41.65
65472;DHT22;52068;50.710;14.492;2023-05-02T12:28:55;23.72;41.75
65472;DHT22;52068;50.710;14.492;2023-05-02T12:31:22;23.72;41.80
65472;DHT22;52068;50.710;14.492;2023-05-02T12:33:48;23.72;41.75
65472;DHT22;52068;50.710;14.492;2023-05-02T12:36:14;23.72;41.64
65472;DHT22;52068;50.710;14.492;2023-05-02T12:38:40;23.72;41.80
65472;DHT22;52068;50.710;14.492;2023-05-02T12:41:11;23.72;41.89
65472;DHT22;52068;50.710;14.492;2023-05-02T12:43:46;23.72;41.82
65472;DHT22;52068;50.710;14.492;2023-05-02T12:46:12;23.72;41.83
65472;DHT22;52068;50.710;14.492;2023-05-02T12:48:37;23.71;41.90
65472;DHT22;52068;50.710;14.492;2023-05-02T12:51:02;23.71;41.58
65472;DHT22;52068;50.710;14.492;2023-05-02T12:56:03;23.68;41.69
65472;DHT22;52068;50.710;14.492;2023-05-02T12:58:28;23.72;41.51
65472;DHT22;52068;50.710;14.492;2023-05-02T13:00:54;23.71;41.93
65472;DHT22;52068;50.710;14.492;2023-05-02T13:03:20;23.68;41.83
65472;DHT22;52068;50.710;14.492;2023-05-02T13:05:46;23.68;41.62
65472;DHT22;52068;50.710;14.492;2023-05-02T13:08:11;23.69;41.90
65472;DHT22;52068;50.710;14.492;2023-05-02T13:10:37;23.69;41.98
65472;DHT22;52068;50.710;14.492;2023-05-02T13:13:02;23.71;42.02
65472;DHT22;52068;50.710;14.492;2023-05-02T13:15:27;23.69;41.98
65472;DHT22;52068;50.710;14.492;2023-05-02T13:17:52;23.71;42.05
65472;DHT22;52068;50.710;14.492;2023-05-02T13:20:18;23.71;41.98
65472;DHT22;52068;50.710;14.492;2023-05-02T13:22:43;23.72;42.03
65472;DHT22;52068;50.710;14.492;2023-05-02T13:25:08;23.72;41.96
65472;DHT22;52068;50.710;14.492;2023-05-02T13:27:34;23.72;42.00
65472;DHT22;52068;50.710;14.492;2023-05-02T13:29:59;23.75;41.92
65472;DHT22;52068;50.710;14.492;2023-05-02T13:32:27;23.76;41.59
65472;DHT22;52068;50.710;14.492;2023-05-02T13:34:53;23.76;41.41
65472;DHT22;52068;50.710;14.492;2023-05-02T13:37:18;23.81;41.54
65472;DHT22;52068;50.710;14.492;2023-05-02T13:39:43;23.85;41.53
65472;DHT22;52068;50.710;14.492;2023-05-02T13:42:09;23.88;41.52
65472;DHT22;52068;50.710;14.492;2023-05-02T13:44:34;23.90;41.49
65472;DHT22;52068;50.710;14.492;2023-05-02T13:47:00;23.93;41.45
65472;DHT22;52068;50.710;14.492;2023-05-02T13:49:25;23.98;41.32
65472;DHT22;52068;50.710;14.492;2023-05-02T13:51:51;24.01;41.33
65472;DHT22;52068;50.710;14.492;2023-05-02T13:54:16;24.01;41.22
65472;DHT22;52068;50.710;14.492;2023-05-02T13:56:41;24.06;41.23
65472;DHT22;52068;50.710;14.492;2023-05-02T13:59:07;24.08;41.20
65472;DHT22;52068;50.710;14.492;2023-05-02T14:01:33;24.06;41.17
65472;DHT22;52068;50.710;14.492;2023-05-02T14:03:58;24.10;41.15
65472;DHT22;52068;50.710;14.492;2023-05-02T14:06:23;24.09;41.07
65472;DHT22;52068;50.710;14.492;2023-05-02T14:08:48;24.12;41.05
65472;DHT22;52068;50.710;14.492;2023-05-02T14:11:16;24.12;41.03
65472;DHT22;52068;50.710;14.492;2023-05-02T14:13:42;24.16;41.06
65472;DHT22;52068;50.710;14.492;2023-05-02T14:16:07;24.16;41.03
65472;DHT22;52068;50.710;14.492;2023-05-02T14:18:32;24.16;40.92
65472;DHT22;52068;50.710;14.492;2023-05-02T14:20:58;24.17;40.88
65472;DHT22;52068;50.710;14.492;2023-05-02T14:23:24;24.16;40.86
65472;DHT22;52068;50.710;14.492;2023-05-02T14:25:50;24.17;40.89
65472;DHT22;52068;50.710;14.492;2023-05-02T14:28:15;24.17;40.76
65472;DHT22;52068;50.710;14.492;2023-05-02T14:30:40;24.16;40.95
65472;DHT22;52068;50.710;14.492;2023-05-02T14:33:05;24.16;41.03
65472;DHT22;52068;50.710;14.492;2023-05-02T14:35:31;24.13;41.05
65472;DHT22;52068;50.710;14.492;2023-05-02T14:37:56;24.10;41.14
65472;DHT22;52068;50.710;14.492;2023-05-02T14:40:21;24.10;41.16
65472;DHT22;52068;50.710;14.492;2023-05-02T14:42:46;24.09;41.15
65472;DHT22;52068;50.710;14.492;2023-05-02T14:45:12;24.09;41.11
65472;DHT22;52068;50.710;14.492;2023-05-02T14:47:37;24.06;41.02
65472;DHT22;52068;50.710;14.492;2023-05-02T14:50:03;24.06;40.95
65472;DHT22;52068;50.710;14.492;2023-05-02T14:52:28;24.05;41.09
65472;DHT22;52068;50.710;14.492;2023-05-02T14:54:54;24.02;41.06
65472;DHT22;52068;50.710;14.492;2023-05-02T14:57:19;24.03;41.09
65472;DHT22;52068;50.710;14.492;2023-05-02T14:59:44;24.02;41.07
65472;DHT22;52068;50.710;14.492;2023-05-02T15:02:10;24.03;41.01
65472;DHT22;52068;50.710;14.492;2023-05-02T15:04:35;24.02;40.97
65472;DHT22;52068;50.710;14.492;2023-05-02T15:07:00;24.02;41.03
65472;DHT22;52068;50.710;14.492;2023-05-02T15:09:26;24.02;40.90
65472;DHT22;52068;50.710;14.492;2023-05-02T15:11:52;24.02;40.86
65472;DHT22;52068;50.710;14.492;2023-05-02T15:14:17;24.03;40.81
65472;DHT22;52068;50.710;14.492;2023-05-02T15:16:42;24.03;40.81
65472;DHT22;52068;50.710;14.492;2023-05-02T15:19:08;24.02;40.79
65472;DHT22;52068;50.710;14.492;2023-05-02T15:21:33;24.03;40.81
65472;DHT22;52068;50.710;14.492;2023-05-02T15:23:59;24.03;40.78
65472;DHT22;52068;50.710;14.492;2023-05-02T15:26:24;24.03;40.77
65472;DHT22;52068;50.710;14.492;2023-05-02T15:28:50;24.03;40.75
65472;DHT22;52068;50.710;14.492;2023-05-02T15:31:15;24.05;40.72
65472;DHT22;52068;50.710;14.492;2023-05-02T15:33:40;24.05;40.68
65472;DHT22;52068;50.710;14.492;2023-05-02T15:36:06;24.05;40.60
65472;DHT22;52068;50.710;14.492;2023-05-02T15:38:31;24.09;40.62
65472;DHT22;52068;50.710;14.492;2023-05-02T15:40:58;24.09;40.59
65472;DHT22;52068;50.710;14.492;2023-05-02T15:43:24;24.08;40.56
65472;DHT22;52068;50.710;14.492;2023-05-02T15:45:56;24.10;40.52
65472;DHT22;52068;50.710;14.492;2023-05-02T15:48:22;24.09;40.49